sensor_id;sensor_type;location;lat;lon;timestamp;temperature;humidity
3614;DHT22;1821;50.936;6.854;2023-08-30T00:00:31;15.00;99.90
3614;DHT22;1821;50.936;6.854;2023-08-30T00:01:12;15.10;99.90
3614;DHT22;1821;50.936;6.854;2023-08-30T00:01:54;15.00;99.90
3614;DHT22;1821;50.936;6.854;2023-08-30T00:02:36;15.00;99.90
3614;DHT22;1821;50.936;6.854;2023-08-30T00:03:19;14.90;99.90
3614;DHT22;1821;50.936;6.854;2023-08-30T00:04:01;15.00;99.90
3614;DHT22;1821;50.936;6.854;2023-08-30T00:04:43;15.10;99.90
3614;DHT22;1821;50.936;6.854;2023-08-30T00:05:24;15.10;99.90
3614;DHT22;1821;50.936;6.854;2023-08-30T00:06:07;15.10;99.90
3614;DHT22;1821;50.936;6.854;2023-08-30T00:06:48;15.20;99.90
3614;DHT22;1821;50.936;6.854;2023-08-30T00:07:30;15.20;99.90
3614;DHT22;1821;50.936;6.854;2023-08-30T00:08:12;15.20;99.90
3614;DHT22;1821;50.936;6.854;2023-08-30T00:09:03;15.20;99.90
3614;DHT22;1821;50.936;6.854;2023-08-30T00:09:45;15.20;99.90
3614;DHT22;1821;50.936;6.854;2023-08-30T00:10:27;15.20;99.90
3614;DHT22;1821;50.936;6.854;2023-08-30T00:11:08;15.30;99.90
3614;DHT22;1821;50.936;6.854;2023-08-30T00:11:50;15.20;99.90
3614;DHT22;1821;50.936;6.854;2023-08-30T00:12:33;15.10;99.90
3614;DHT22;1821;50.936;6.854;2023-08-30T00:13:15;15.10;99.90
3614;DHT22;1821;50.936;6.854;2023-08-30T00:14:05;15.20;99.90
3614;DHT22;1821;50.936;6.854;2023-08-30T00:14:47;15.20;99.90
3614;DHT22;1821;50.936;6.854;2023-08-30T00:15:29;12.00;99.90
3614;DHT22;1821;50.936;6.854;2023-08-30T00:16:11;15.10;99.90
3614;DHT22;1821;50.936;6.854;2023-08-30T00:16:54;15.10;99.90
3614;DHT22;1821;50.936;6.854;2023-08-30T00:17:36;15.10;99.90
3614;DHT22;1821;50.936;6.854;2023-08-30T00:18:18;15.20;99.90
3614;DHT22;1821;50.936;6.854;2023-08-30T00:19:00;15.30;99.90
3614;DHT22;1821;50.936;6.854;2023-08-30T00:19:42;15.30;99.90
3614;DHT22;1821;50.936;6.854;2023-08-30T00:20:24;15.30;99.90
3614;DHT22;1821;50.936;6.854;2023-08-30T00:21:06;15.40;99.90
3614;DHT22;1821;50.936;6.854;2023-08-30T00:21:48;15.30;99.90
3614;DHT22;1821;50.936;6.854;2023-08-30T00:22:30;15.40;99.90
3614;DHT22;1821;50.936;6.854;2023-08-30T00:23:12;15.40;99.90
3614;DHT22;1821;50.936;6.854;2023-08-30T00:23:54;15.40;99.90
3614;DHT22;1821;50.936;6.854;2023-08-30T00:24:36;15.30;99.90
3614;DHT22;1821;50.936;6.854;2023-08-30T00:25:18;15.20;99.90
3614;DHT22;1821;50.936;6.854;2023-08-30T00:26:00;15.10;99.90
3614;DHT22;1821;50.936;6.854;2023-08-30T00:26:42;15.10;99.90
3614;DHT22;1821;50.936;6.854;2023-08-30T00:27:24;15.10;99.90
3614;DHT22;1821;50.936;6.854;2023-08-30T00:28:06;15.20;99.90
3614;DHT22;1821;50.936;6.854;2023-08-30T00:28:49;15.20;99.90
3614;DHT22;1821;50.936;6.854;2023-08-30T00:29:30;15.10;99.90
3614;DHT22;1821;50.936;6.854;2023-08-30T00:30:12;15.10;99.90
3614;DHT22;1821;50.936;6.854;2023-08-30T00:30:55;15.10;99.90
3614;DHT22;1821;50.936;6.854;2023-08-30T00:31:37;15.20;99.90
3614;DHT22;1821;50.936;6.854;2023-08-30T00:32:19;15.30;99.90
3614;DHT22;1821;50.936;6.854;2023-08-30T00:33:01;15.20;99.90
3614;DHT22;1821;50.936;6.854;2023-08-30T00:33:43;15.30;99.90
3614;DHT22;1821;50.936;6.854;2023-08-30T00:34:25;15.30;99.90
3614;DHT22;1821;50.936;6.854;2023-08-30T00:35:07;15.20;99.90
3614;DHT22;1821;50.936;6.854;2023-08-30T00:35:56;15.30;99.90
3614;DHT22;1821;50.936;6.854;2023-08-30T00:36:38;15.30;99.90
3614;DHT22;1821;50.936;6.854;2023-08-30T00:37:20;15.20;99.90
3614;DHT22;1821;50.936;6.854;2023-08-30T00:38:02;15.30;99.90
3614;DHT22;1821;50.936;6.854;2023-08-30T00:38:44;15.20;99.90
3614;DHT22;1821;50.936;6.854;2023-08-30T00:39:26;15.30;99.90
3614;DHT22;1821;50.936;6.854;2023-08-30T00:40:08;15.30;99.90
3614;DHT22;1821;50.936;6.854;2023-08-30T00:40:50;15.30;99.90
3614;DHT22;1821;50.936;6.854;2023-08-30T00:41:32;15.30;99.90
3614;DHT22;1821;50.936;6.854;2023-08-30T00:42:13;15.30;99.90
3614;DHT22;1821;50.936;6.854;2023-08-30T00:42:56;15.30;99.90
3614;DHT22;1821;50.936;6.854;2023-08-30T00:43:39;15.30;99.90
3614;DHT22;1821;50.936;6.854;2023-08-30T00:44:21;15.30;99.90
3614;DHT22;1821;50.936;6.854;2023-08-30T00:45:03;15.20;99.90
3614;DHT22;1821;50.936;6.854;2023-08-30T00:45:47;15.40;99.90
3614;DHT22;1821;50.936;6.854;2023-08-30T00:46:29;15.40;99.90
3614;DHT22;1821;50.936;6.854;2023-08-30T00:47:12;15.40;99.90
3614;DHT22;1821;50.936;6.854;2023-08-30T00:47:53;15.30;99.90
3614;DHT22;1821;50.936;6.854;2023-08-30T00:48:35;15.30;99.90
3614;DHT22;1821;50.936;6.854;2023-08-30T00:49:17;15.30;99.90
3614;DHT22;1821;50.936;6.854;2023-08-30T00:50:00;15.30;99.90
3614;DHT22;1821;50.936;6.854;2023-08-30T00:50:42;15.40;99.90
3614;DHT22;1821;50.936;6.854;2023-08-30T00:51:24;15.30;99.90
3614;DHT22;1821;50.936;6.854;2023-08-30T00:52:08;15.30;99.90
3614;DHT22;1821;50.936;6.854;2023-08-30T00:52:51;15.20;99.90
3614;DHT22;1821;50.936;6.854;2023-08-30T00:53:33;15.30;99.90
3614;DHT22;1821;50.936;6.854;2023-08-30T00:54:15;15.20;99.90
3614;DHT22;1821;50.936;6.854;2023-08-30T00:54:58;15.30;99.90
3614;DHT22;1821;50.936;6.854;2023-08-30T00:55:42;15.40;99.90
3614;DHT22;1821;50.936;6.854;2023-08-30T00:56:24;15.30;99.90
3614;DHT22;1821;50.936;6.854;2023-08-30T00:57:06;15.40;99.90
3614;DHT22;1821;50.936;6.854;2023-08-30T00:57:49;15.30;99.90
3614;DHT22;1821;50.936;6.854;2023-08-30T00:58:31;15.30;99.90
3614;DHT22;1821;50.936;6.854;2023-08-30T00:59:13;15.30;99.90
3614;DHT22;1821;50.936;6.854;2023-08-30T00:59:55;15.40;99.90
3614;DHT22;1821;50.936;6.854;2023-08-30T01:00:38;15.30;99.90
3614;DHT22;1821;50.936;6.854;2023-08-30T01:01:21;15.40;99.90
3614;DHT22;1821;50.936;6.854;2023-08-30T01:02:04;15.40;99.90
3614;DHT22;1821;50.936;6.854;2023-08-30T01:02:46;15.40;99.90
3614;DHT22;1821;50.936;6.854;2023-08-30T01:03:28;15.30;99.90
3614;DHT22;1821;50.936;6.854;2023-08-30T01:04:10;15.20;99.90
3614;DHT22;1821;50.936;6.854;2023-08-30T01:04:52;15.30;99.90
3614;DHT22;1821;50.936;6.854;2023-08-30T01:05:34;15.30;99.90
3614;DHT22;1821;50.936;6.854;2023-08-30T01:06:16;15.30;99.90
3614;DHT22;1821;50.936;6.854;2023-08-30T01:06:58;15.30;99.90
3614;DHT22;1821;50.936;6.854;2023-08-30T01:07:40;15.30;99.90
3614;DHT22;1821;50.936;6.854;2023-08-30T01:08:22;15.30;99.90
3614;DHT22;1821;50.936;6.854;2023-08-30T01:09:04;15.30;99.90
3614;DHT22;1821;50.936;6.854;2023-08-30T01:09:46;15.10;99.90
3614;DHT22;1821;50.936;6.854;2023-08-30T01:12:48;15.30;99.90
3614;DHT22;1821;50.936;6.854;2023-08-30T01:13:33;15.30;99.90
3614;DHT22;1821;50.936;6.854;2023-08-30T01:14:36;15.10;99.90
3614;DHT22;1821;50.936;6.854;2023-08-30T01:15:20;15.20;99.90
3614;DHT22;1821;50.936;6.854;2023-08-30T01:16:03;15.20;99.90
3614;DHT22;1821;50.936;6.854;2023-08-30T01:16:45;15.20;99.90
3614;DHT22;1821;50.936;6.854;2023-08-30T01:17:28;15.20;99.90
3614;DHT22;1821;50.936;6.854;2023-08-30T01:18:11;15.20;99.90
3614;DHT22;1821;50.936;6.854;2023-08-30T01:18:56;15.20;99.90
3614;DHT22;1821;50.936;6.854;2023-08-30T01:20:00;15.20;99.90
3614;DHT22;1821;50.936;6.854;2023-08-30T01:20:45;15.10;99.90
3614;DHT22;1821;50.936;6.854;2023-08-30T01:21:52;15.10;99.90
3614;DHT22;1821;50.936;6.854;2023-08-30T01:23:40;15.10;99.90
3614;DHT22;1821;50.936;6.854;2023-08-30T01:24:30;15.10;99.90
3614;DHT22;1821;50.936;6.854;2023-08-30T01:26:42;15.10;99.90
3614;DHT22;1821;50.936;6.854;2023-08-30T01:27:27;15.10;99.90
3614;DHT22;1821;50.936;6.854;2023-08-30T01:28:10;15.10;99.90
3614;DHT22;1821;50.936;6.854;2023-08-30T01:28:54;15.10;99.90
3614;DHT22;1821;50.936;6.854;2023-08-30T01:29:38;15.10;99.90
3614;DHT22;1821;50.936;6.854;2023-08-30T01:30:23;15.10;99.90
3614;DHT22;1821;50.936;6.854;2023-08-30T01:31:09;15.00;99.90
3614;DHT22;1821;50.936;6.854;2023-08-30T01:31:54;15.20;99.90
3614;DHT22;1821;50.936;6.854;2023-08-30T01:32:37;15.10;99.90
3614;DHT22;1821;50.936;6.854;2023-08-30T01:33:20;15.20;99.90
3614;DHT22;1821;50.936;6.854;2023-08-30T01:34:03;15.20;99.90
3614;DHT22;1821;50.936;6.854;2023-08-30T01:34:47;15.20;99.90
3614;DHT22;1821;50.936;6.854;2023-08-30T01:35:32;15.10;99.90
3614;DHT22;1821;50.936;6.854;2023-08-30T01:36:14;15.10;99.90
3614;DHT22;1821;50.936;6.854;2023-08-30T01:36:58;15.00;99.90
3614;DHT22;1821;50.936;6.854;2023-08-30T01:37:40;15.00;99.90
3614;DHT22;1821;50.936;6.854;2023-08-30T01:38:23;15.00;99.90
3614;DHT22;1821;50.936;6.854;2023-08-30T01:39:07;15.00;99.90
3614;DHT22;1821;50.936;6.854;2023-08-30T01:39:49;15.00;99.90
3614;DHT22;1821;50.936;6.854;2023-08-30T01:40:35;15.00;99.90
3614;DHT22;1821;50.936;6.854;2023-08-30T01:41:19;15.30;99.90
3614;DHT22;1821;50.936;6.854;2023-08-30T01:42:01;14.90;99.90
3614;DHT22;1821;50.936;6.854;2023-08-30T01:42:44;14.90;99.90
3614;DHT22;1821;50.936;6.854;2023-08-30T01:43:28;14.70;99.90
3614;DHT22;1821;50.936;6.854;2023-08-30T01:44:11;14.60;99.90
3614;DHT22;1821;50.936;6.854;2023-08-30T01:44:56;14.60;99.90
3614;DHT22;1821;50.936;6.854;2023-08-30T01:45:41;14.40;99.90
3614;DHT22;1821;50.936;6.854;2023-08-30T01:46:24;14.70;99.90
3614;DHT22;1821;50.936;6.854;2023-08-30T01:47:06;14.70;99.90
3614;DHT22;1821;50.936;6.854;2023-08-30T01:47:48;14.70;99.90
3614;DHT22;1821;50.936;6.854;2023-08-30T01:48:32;14.70;99.90
3614;DHT22;1821;50.936;6.854;2023-08-30T01:49:15;14.70;99.90
3614;DHT22;1821;50.936;6.854;2023-08-30T01:49:57;18.90;99.90
3614;DHT22;1821;50.936;6.854;2023-08-30T01:50:41;14.80;99.90
3614;DHT22;1821;50.936;6.854;2023-08-30T01:51:23;14.80;99.90
3614;DHT22;1821;50.936;6.854;2023-08-30T01:52:06;14.80;99.90
3614;DHT22;1821;50.936;6.854;2023-08-30T01:52:48;14.80;99.90
3614;DHT22;1821;50.936;6.854;2023-08-30T01:53:32;14.80;99.90
3614;DHT22;1821;50.936;6.854;2023-08-30T01:54:17;14.70;99.90
3614;DHT22;1821;50.936;6.854;2023-08-30T01:55:00;14.70;99.90
3614;DHT22;1821;50.936;6.854;2023-08-30T01:55:43;14.60;99.90
3614;DHT22;1821;50.936;6.854;2023-08-30T01:56:25;14.70;99.90
3614;DHT22;1821;50.936;6.854;2023-08-30T01:57:07;14.70;99.90
3614;DHT22;1821;50.936;6.854;2023-08-30T01:57:49;14.70;99.90
3614;DHT22;1821;50.936;6.854;2023-08-30T01:58:31;14.70;99.90
3614;DHT22;1821;50.936;6.854;2023-08-30T01:59:13;14.80;99.90
3614;DHT22;1821;50.936;6.854;2023-08-30T01:59:54;14.60;99.90
3614;DHT22;1821;50.936;6.854;2023-08-30T02:00:36;14.70;99.90
3614;DHT22;1821;50.936;6.854;2023-08-30T02:01:18;14.80;99.90
3614;DHT22;1821;50.936;6.854;2023-08-30T02:02:00;10.90;99.90
3614;DHT22;1821;50.936;6.854;2023-08-30T02:02:42;19.80;99.90
3614;DHT22;1821;50.936;6.854;2023-08-30T02:03:24;14.80;99.90
3614;DHT22;1821;50.936;6.854;2023-08-30T02:04:06;14.70;99.90
3614;DHT22;1821;50.936;6.854;2023-08-30T02:04:47;14.80;99.90
3614;DHT22;1821;50.936;6.854;2023-08-30T02:05:29;14.80;99.90
3614;DHT22;1821;50.936;6.854;2023-08-30T02:06:17;14.80;99.90
3614;DHT22;1821;50.936;6.854;2023-08-30T02:07:04;14.80;99.90
3614;DHT22;1821;50.936;6.854;2023-08-30T02:07:57;14.80;99.90
3614;DHT22;1821;50.936;6.854;2023-08-30T02:08:43;14.80;99.90
3614;DHT22;1821;50.936;6.854;2023-08-30T02:11:02;14.70;99.90
3614;DHT22;1821;50.936;6.854;2023-08-30T02:11:48;14.60;99.90
3614;DHT22;1821;50.936;6.854;2023-08-30T02:12:44;14.70;99.90
3614;DHT22;1821;50.936;6.854;2023-08-30T02:13:30;14.60;99.90
3614;DHT22;1821;50.936;6.854;2023-08-30T02:14:13;14.60;99.90
3614;DHT22;1821;50.936;6.854;2023-08-30T02:15:00;14.60;99.90
3614;DHT22;1821;50.936;6.854;2023-08-30T02:15:43;14.60;99.90
3614;DHT22;1821;50.936;6.854;2023-08-30T02:16:27;14.60;99.90
3614;DHT22;1821;50.936;6.854;2023-08-30T02:17:10;14.70;99.90
3614;DHT22;1821;50.936;6.854;2023-08-30T02:17:52;14.60;99.90
3614;DHT22;1821;50.936;6.854;2023-08-30T02:18:35;14.60;99.90
3614;DHT22;1821;50.936;6.854;2023-08-30T02:19:18;14.60;99.90
3614;DHT22;1821;50.936;6.854;2023-08-30T02:20:03;14.60;99.90
3614;DHT22;1821;50.936;6.854;2023-08-30T02:20:46;14.60;99.90
3614;DHT22;1821;50.936;6.854;2023-08-30T02:21:28;14.50;99.90
3614;DHT22;1821;50.936;6.854;2023-08-30T02:22:11;14.60;99.90
3614;DHT22;1821;50.936;6.854;2023-08-30T02:22:58;14.60;99.90
3614;DHT22;1821;50.936;6.854;2023-08-30T02:24:22;14.60;99.90
3614;DHT22;1821;50.936;6.854;2023-08-30T02:25:04;14.60;99.90
3614;DHT22;1821;50.936;6.854;2023-08-30T02:25:46;14.60;99.90
3614;DHT22;1821;50.936;6.854;2023-08-30T02:26:28;14.60;99.90
3614;DHT22;1821;50.936;6.854;2023-08-30T02:27:52;14.50;99.90
3614;DHT22;1821;50.936;6.854;2023-08-30T02:28:34;14.40;99.90
3614;DHT22;1821;50.936;6.854;2023-08-30T02:29:16;14.50;99.90
3614;DHT22;1821;50.936;6.854;2023-08-30T02:29:57;14.40;99.90
3614;DHT22;1821;50.936;6.854;2023-08-30T02:30:39;14.40;99.90
3614;DHT22;1821;50.936;6.854;2023-08-30T02:31:21;14.30;99.90
3614;DHT22;1821;50.936;6.854;2023-08-30T02:32:03;14.20;99.90
3614;DHT22;1821;50.936;6.854;2023-08-30T02:32:45;14.20;99.90
3614;DHT22;1821;50.936;6.854;2023-08-30T02:34:10;14.40;99.90
3614;DHT22;1821;50.936;6.854;2023-08-30T02:34:52;14.30;99.90
3614;DHT22;1821;50.936;6.854;2023-08-30T02:35:34;14.20;99.90
3614;DHT22;1821;50.936;6.854;2023-08-30T02:36:16;14.30;99.90
3614;DHT22;1821;50.936;6.854;2023-08-30T02:36:58;14.20;99.90
3614;DHT22;1821;50.936;6.854;2023-08-30T02:37:40;14.10;99.90
3614;DHT22;1821;50.936;6.854;2023-08-30T02:38:23;14.40;99.90
3614;DHT22;1821;50.936;6.854;2023-08-30T02:39:05;14.30;99.90
3614;DHT22;1821;50.936;6.854;2023-08-30T02:39:47;14.10;99.90
3614;DHT22;1821;50.936;6.854;2023-08-30T02:40:29;14.00;99.90
3614;DHT22;1821;50.936;6.854;2023-08-30T02:41:11;14.30;99.90
3614;DHT22;1821;50.936;6.854;2023-08-30T02:41:54;14.20;99.90
3614;DHT22;1821;50.936;6.854;2023-08-30T02:42:35;14.10;99.90
3614;DHT22;1821;50.936;6.854;2023-08-30T02:43:17;14.20;99.90
3614;DHT22;1821;50.936;6.854;2023-08-30T02:43:59;14.20;99.90
3614;DHT22;1821;50.936;6.854;2023-08-30T02:44:41;14.10;99.90
3614;DHT22;1821;50.936;6.854;2023-08-30T02:45:23;14.10;99.90
3614;DHT22;1821;50.936;6.854;2023-08-30T02:46:05;14.20;99.90
3614;DHT22;1821;50.936;6.854;2023-08-30T02:46:47;14.20;99.90
3614;DHT22;1821;50.936;6.854;2023-08-30T02:47:28;14.10;99.90
3614;DHT22;1821;50.936;6.854;2023-08-30T02:48:10;14.10;99.90
3614;DHT22;1821;50.936;6.854;2023-08-30T02:48:52;14.00;99.90
3614;DHT22;1821;50.936;6.854;2023-08-30T02:49:34;14.10;99.90
3614;DHT22;1821;50.936;6.854;2023-08-30T02:50:16;14.10;99.90
3614;DHT22;1821;50.936;6.854;2023-08-30T02:50:58;14.00;99.90
3614;DHT22;1821;50.936;6.854;2023-08-30T02:51:40;14.00;99.90
3614;DHT22;1821;50.936;6.854;2023-08-30T02:52:21;13.90;99.90
3614;DHT22;1821;50.936;6.854;2023-08-30T02:53:03;13.80;99.90
3614;DHT22;1821;50.936;6.854;2023-08-30T02:53:45;13.80;99.90
3614;DHT22;1821;50.936;6.854;2023-08-30T02:54:27;13.90;99.90
3614;DHT22;1821;50.936;6.854;2023-08-30T02:55:09;13.90;99.90
3614;DHT22;1821;50.936;6.854;2023-08-30T02:55:51;14.00;99.90
3614;DHT22;1821;50.936;6.854;2023-08-30T02:56:32;14.00;99.90
3614;DHT22;1821;50.936;6.854;2023-08-30T02:57:14;13.90;99.90
3614;DHT22;1821;50.936;6.854;2023-08-30T02:57:56;14.00;99.90
3614;DHT22;1821;50.936;6.854;2023-08-30T02:58:38;13.90;99.90
3614;DHT22;1821;50.936;6.854;2023-08-30T02:59:20;13.90;99.90
3614;DHT22;1821;50.936;6.854;2023-08-30T03:00:01;14.00;99.90
3614;DHT22;1821;50.936;6.854;2023-08-30T03:00:47;14.00;99.90
3614;DHT22;1821;50.936;6.854;2023-08-30T03:01:29;14.00;99.90
3614;DHT22;1821;50.936;6.854;2023-08-30T03:02:11;14.00;99.90
3614;DHT22;1821;50.936;6.854;2023-08-30T03:02:53;13.80;99.90
3614;DHT22;1821;50.936;6.854;2023-08-30T03:03:35;13.90;99.90
3614;DHT22;1821;50.936;6.854;2023-08-30T03:04:16;13.80;99.90
3614;DHT22;1821;50.936;6.854;2023-08-30T03:04:59;13.80;99.90
3614;DHT22;1821;50.936;6.854;2023-08-30T03:05:41;14.00;99.90
3614;DHT22;1821;50.936;6.854;2023-08-30T03:06:22;13.90;99.90
3614;DHT22;1821;50.936;6.854;2023-08-30T03:07:04;14.00;99.90
3614;DHT22;1821;50.936;6.854;2023-08-30T03:07:46;14.00;99.90
3614;DHT22;1821;50.936;6.854;2023-08-30T03:08:28;13.80;99.90
3614;DHT22;1821;50.936;6.854;2023-08-30T03:09:10;13.60;99.90
3614;DHT22;1821;50.936;6.854;2023-08-30T03:09:53;13.90;99.90
3614;DHT22;1821;50.936;6.854;2023-08-30T03:10:35;13.70;99.90
3614;DHT22;1821;50.936;6.854;2023-08-30T03:11:17;13.70;99.90
3614;DHT22;1821;50.936;6.854;2023-08-30T03:11:58;13.80;99.90
3614;DHT22;1821;50.936;6.854;2023-08-30T03:12:40;13.80;99.90
3614;DHT22;1821;50.936;6.854;2023-08-30T03:13:22;13.80;99.90
3614;DHT22;1821;50.936;6.854;2023-08-30T03:14:04;13.80;99.90
3614;DHT22;1821;50.936;6.854;2023-08-30T03:14:46;14.00;99.90
3614;DHT22;1821;50.936;6.854;2023-08-30T03:15:31;13.80;99.90
3614;DHT22;1821;50.936;6.854;2023-08-30T03:16:17;13.90;99.90
3614;DHT22;1821;50.936;6.854;2023-08-30T03:16:59;13.90;99.90
3614;DHT22;1821;50.936;6.854;2023-08-30T03:17:41;13.90;99.90
3614;DHT22;1821;50.936;6.854;2023-08-30T03:18:22;13.90;99.90
3614;DHT22;1821;50.936;6.854;2023-08-30T03:19:04;13.90;99.90
3614;DHT22;1821;50.936;6.854;2023-08-30T03:19:46;13.90;99.90
3614;DHT22;1821;50.936;6.854;2023-08-30T03:20:28;13.90;99.90
3614;DHT22;1821;50.936;6.854;2023-08-30T03:21:13;13.90;99.90
3614;DHT22;1821;50.936;6.854;2023-08-30T03:21:55;13.90;99.90
3614;DHT22;1821;50.936;6.854;2023-08-30T03:22:36;13.70;99.90
3614;DHT22;1821;50.936;6.854;2023-08-30T03:23:18;13.80;99.90
3614;DHT22;1821;50.936;6.854;2023-08-30T03:24:00;13.60;99.90
3614;DHT22;1821;50.936;6.854;2023-08-30T03:24:42;13.60;99.90
3614;DHT22;1821;50.936;6.854;2023-08-30T03:25:30;13.70;99.90
3614;DHT22;1821;50.936;6.854;2023-08-30T03:26:13;13.70;99.90
3614;DHT22;1821;50.936;6.854;2023-08-30T03:26:55;13.80;99.90
3614;DHT22;1821;50.936;6.854;2023-08-30T03:27:37;13.60;99.90
3614;DHT22;1821;50.936;6.854;2023-08-30T03:28:22;13.90;99.90
3614;DHT22;1821;50.936;6.854;2023-08-30T03:29:04;13.70;99.90
3614;DHT22;1821;50.936;6.854;2023-08-30T03:29:45;13.80;99.90
3614;DHT22;1821;50.936;6.854;2023-08-30T03:30:29;13.80;99.90
3614;DHT22;1821;50.936;6.854;2023-08-30T03:31:19;13.50;99.90
3614;DHT22;1821;50.936;6.854;2023-08-30T03:32:02;13.80;99.90
3614;DHT22;1821;50.936;6.854;2023-08-30T03:32:43;13.60;99.90
3614;DHT22;1821;50.936;6.854;2023-08-30T03:33:25;13.50;99.90
3614;DHT22;1821;50.936;6.854;2023-08-30T03:34:07;13.50;99.90
3614;DHT22;1821;50.936;6.854;2023-08-30T03:34:49;13.70;99.90
3614;DHT22;1821;50.936;6.854;2023-08-30T03:35:34;13.70;99.90
3614;DHT22;1821;50.936;6.854;2023-08-30T03:36:18;13.80;99.90
3614;DHT22;1821;50.936;6.854;2023-08-30T03:37:00;13.70;99.90
3614;DHT22;1821;50.936;6.854;2023-08-30T03:37:42;13.70;99.90
3614;DHT22;1821;50.936;6.854;2023-08-30T03:38:24;13.70;99.90
3614;DHT22;1821;50.936;6.854;2023-08-30T03:39:06;13.70;99.90
3614;DHT22;1821;50.936;6.854;2023-08-30T03:39:48;13.70;99.90
3614;DHT22;1821;50.936;6.854;2023-08-30T03:40:30;13.80;99.90
3614;DHT22;1821;50.936;6.854;2023-08-30T03:41:14;13.60;99.90
3614;DHT22;1821;50.936;6.854;2023-08-30T03:41:56;13.70;99.90
3614;DHT22;1821;50.936;6.854;2023-08-30T03:42:38;13.70;99.90
3614;DHT22;1821;50.936;6.854;2023-08-30T03:43:21;13.70;99.90
3614;DHT22;1821;50.936;6.854;2023-08-30T03:44:03;13.70;99.90
3614;DHT22;1821;50.936;6.854;2023-08-30T03:44:45;13.60;99.90
3614;DHT22;1821;50.936;6.854;2023-08-30T03:45:26;13.80;99.90
3614;DHT22;1821;50.936;6.854;2023-08-30T03:46:08;13.70;99.90
3614;DHT22;1821;50.936;6.854;2023-08-30T03:46:53;13.70;99.90
3614;DHT22;1821;50.936;6.854;2023-08-30T03:47:37;13.70;99.90
3614;DHT22;1821;50.936;6.854;2023-08-30T03:48:20;13.60;99.90
3614;DHT22;1821;50.936;6.854;2023-08-30T03:49:01;13.70;99.90
3614;DHT22;1821;50.936;6.854;2023-08-30T03:49:45;13.80;99.90
3614;DHT22;1821;50.936;6.854;2023-08-30T03:50:27;13.70;99.90
3614;DHT22;1821;50.936;6.854;2023-08-30T03:51:09;13.60;99.90
3614;DHT22;1821;50.936;6.854;2023-08-30T03:51:51;13.70;99.90
3614;DHT22;1821;50.936;6.854;2023-08-30T03:52:33;14.40;99.90
3614;DHT22;1821;50.936;6.854;2023-08-30T03:53:16;13.70;99.90
3614;DHT22;1821;50.936;6.854;2023-08-30T03:53:59;10.30;99.90
3614;DHT22;1821;50.936;6.854;2023-08-30T03:54:41;13.70;99.90
3614;DHT22;1821;50.936;6.854;2023-08-30T03:55:23;13.60;99.90
3614;DHT22;1821;50.936;6.854;2023-08-30T03:56:05;13.70;99.90
3614;DHT22;1821;50.936;6.854;2023-08-30T03:56:47;13.70;99.90
3614;DHT22;1821;50.936;6.854;2023-08-30T03:57:31;13.60;99.90
3614;DHT22;1821;50.936;6.854;2023-08-30T03:58:13;13.60;99.90
3614;DHT22;1821;50.936;6.854;2023-08-30T03:58:55;13.60;99.90
3614;DHT22;1821;50.936;6.854;2023-08-30T03:59:37;13.60;99.90
3614;DHT22;1821;50.936;6.854;2023-08-30T04:00:19;13.60;99.90
3614;DHT22;1821;50.936;6.854;2023-08-30T04:01:02;13.60;99.90
3614;DHT22;1821;50.936;6.854;2023-08-30T04:01:44;13.50;99.90
3614;DHT22;1821;50.936;6.854;2023-08-30T04:02:26;13.40;99.90
3614;DHT22;1821;50.936;6.854;2023-08-30T04:03:09;13.40;99.90
3614;DHT22;1821;50.936;6.854;2023-08-30T04:03:52;13.50;99.90
3614;DHT22;1821;50.936;6.854;2023-08-30T04:04:34;13.30;99.90
3614;DHT22;1821;50.936;6.854;2023-08-30T04:05:16;13.20;99.90
3614;DHT22;1821;50.936;6.854;2023-08-30T04:05:58;13.40;99.90
3614;DHT22;1821;50.936;6.854;2023-08-30T04:06:40;13.20;99.90
3614;DHT22;1821;50.936;6.854;2023-08-30T04:07:22;13.30;99.90
3614;DHT22;1821;50.936;6.854;2023-08-30T04:08:05;13.30;99.90
3614;DHT22;1821;50.936;6.854;2023-08-30T04:08:48;13.30;99.90
3614;DHT22;1821;50.936;6.854;2023-08-30T04:09:30;13.40;99.90
3614;DHT22;1821;50.936;6.854;2023-08-30T04:10:12;13.50;99.90
3614;DHT22;1821;50.936;6.854;2023-08-30T04:10:54;13.40;99.90
3614;DHT22;1821;50.936;6.854;2023-08-30T04:11:36;13.40;99.90
3614;DHT22;1821;50.936;6.854;2023-08-30T04:12:18;13.50;99.90
3614;DHT22;1821;50.936;6.854;2023-08-30T04:13:01;14.00;99.90
3614;DHT22;1821;50.936;6.854;2023-08-30T04:13:43;13.50;99.90
3614;DHT22;1821;50.936;6.854;2023-08-30T04:14:24;13.40;99.90
3614;DHT22;1821;50.936;6.854;2023-08-30T04:15:07;8.90;99.90
3614;DHT22;1821;50.936;6.854;2023-08-30T04:15:49;13.40;99.90
3614;DHT22;1821;50.936;6.854;2023-08-30T04:16:31;13.40;99.90
3614;DHT22;1821;50.936;6.854;2023-08-30T04:17:13;13.30;99.90
3614;DHT22;1821;50.936;6.854;2023-08-30T04:17:55;13.30;99.90
3614;DHT22;1821;50.936;6.854;2023-08-30T04:18:37;13.30;99.90
3614;DHT22;1821;50.936;6.854;2023-08-30T04:19:19;13.30;99.90
3614;DHT22;1821;50.936;6.854;2023-08-30T04:20:01;13.30;99.90
3614;DHT22;1821;50.936;6.854;2023-08-30T04:20:47;13.30;99.90
3614;DHT22;1821;50.936;6.854;2023-08-30T04:21:29;13.40;99.90
3614;DHT22;1821;50.936;6.854;2023-08-30T04:22:11;13.30;99.90
3614;DHT22;1821;50.936;6.854;2023-08-30T04:22:53;13.20;99.90
3614;DHT22;1821;50.936;6.854;2023-08-30T04:23:36;13.00;99.90
3614;DHT22;1821;50.936;6.854;2023-08-30T04:24:18;13.10;99.90
3614;DHT22;1821;50.936;6.854;2023-08-30T04:25:01;13.20;99.90
3614;DHT22;1821;50.936;6.854;2023-08-30T04:25:44;13.10;99.90
3614;DHT22;1821;50.936;6.854;2023-08-30T04:26:26;13.00;99.90
3614;DHT22;1821;50.936;6.854;2023-08-30T04:27:08;13.00;99.90
3614;DHT22;1821;50.936;6.854;2023-08-30T04:27:50;13.10;99.90
3614;DHT22;1821;50.936;6.854;2023-08-30T04:28:32;13.20;99.90
3614;DHT22;1821;50.936;6.854;2023-08-30T04:29:14;13.00;99.90
3614;DHT22;1821;50.936;6.854;2023-08-30T04:29:56;13.00;99.90
3614;DHT22;1821;50.936;6.854;2023-08-30T04:30:38;13.00;99.90
3614;DHT22;1821;50.936;6.854;2023-08-30T04:31:20;13.00;99.90
3614;DHT22;1821;50.936;6.854;2023-08-30T04:32:02;13.10;99.90
3614;DHT22;1821;50.936;6.854;2023-08-30T04:32:47;13.10;99.90
3614;DHT22;1821;50.936;6.854;2023-08-30T04:34:11;13.20;99.90
3614;DHT22;1821;50.936;6.854;2023-08-30T04:34:53;13.10;99.90
3614;DHT22;1821;50.936;6.854;2023-08-30T04:35:35;13.10;99.90
3614;DHT22;1821;50.936;6.854;2023-08-30T04:36:17;13.00;99.90
3614;DHT22;1821;50.936;6.854;2023-08-30T04:36:59;13.30;99.90
3614;DHT22;1821;50.936;6.854;2023-08-30T04:37:41;13.20;99.90
3614;DHT22;1821;50.936;6.854;2023-08-30T04:38:24;13.20;99.90
3614;DHT22;1821;50.936;6.854;2023-08-30T04:39:08;13.20;99.90
3614;DHT22;1821;50.936;6.854;2023-08-30T04:39:51;13.20;99.90
3614;DHT22;1821;50.936;6.854;2023-08-30T04:40:33;13.20;99.90
3614;DHT22;1821;50.936;6.854;2023-08-30T04:41:15;13.20;99.90
3614;DHT22;1821;50.936;6.854;2023-08-30T04:41:56;13.10;99.90
3614;DHT22;1821;50.936;6.854;2023-08-30T04:42:40;13.00;99.90
3614;DHT22;1821;50.936;6.854;2023-08-30T04:43:22;13.10;99.90
3614;DHT22;1821;50.936;6.854;2023-08-30T04:44:04;13.20;99.90
3614;DHT22;1821;50.936;6.854;2023-08-30T04:44:46;13.10;99.90
3614;DHT22;1821;50.936;6.854;2023-08-30T04:45:28;13.10;99.90
3614;DHT22;1821;50.936;6.854;2023-08-30T04:46:12;13.10;99.90
3614;DHT22;1821;50.936;6.854;2023-08-30T04:46:55;13.10;99.90
3614;DHT22;1821;50.936;6.854;2023-08-30T04:47:37;13.10;99.90
3614;DHT22;1821;50.936;6.854;2023-08-30T04:48:20;13.20;99.90
3614;DHT22;1821;50.936;6.854;2023-08-30T04:49:02;13.30;99.90